Time;durP1;ratioP1;P1;durP2;ratioP2;P2;SDS_P1;SDS_P2;PMS_P1;PMS_P2;Temp;Humidity;BMP_temperature;BMP_pressure;BME280_temperature;BME280_humidity;BME280_pressure;Samples;Min_cycle;Max_cycle;Signal;HPM_P1;HPM_P2
2023/08/03 00:00:21;;;;;;;5.88;2.55;;;16.00;99.90;;;;;;5055141;28;20091;-70
2023/08/03 00:02:46;;;;;;;10.38;3.10;;;16.00;99.90;;;;;;5037764;28;20040;-70
2023/08/03 00:05:19;;;;;;;6.90;2.40;;;16.00;99.90;;;;;;5055915;28;20048;-70
2023/08/03 00:07:49;;;;;;;5.22;2.47;;;16.00;99.90;;;;;;5054844;28;20554;-71
2023/08/03 00:10:19;;;;;;;5.38;2.67;;;16.00;99.90;;;;;;5037844;28;20481;-71
2023/08/03 00:12:46;;;;;;;5.78;2.40;;;15.90;99.90;;;;;;5037645;28;20056;-71
2023/08/03 00:15:13;;;;;;;5.47;2.70;;;16.00;99.90;;;;;;5038610;28;20054;-71
2023/08/03 00:17:43;;;;;;;6.07;2.90;;;16.00;99.90;;;;;;5038180;28;20060;-71
2023/08/03 00:20:09;;;;;;;8.52;2.70;;;16.00;99.90;;;;;;5036632;28;20045;-71
2023/08/03 00:22:38;;;;;;;5.95;2.90;;;15.90;99.90;;;;;;5054152;28;20072;-71
2023/08/03 00:25:08;;;;;;;6.88;2.70;;;15.90;99.90;;;;;;5036060;28;20448;-71
2023/08/03 00:27:33;;;;;;;6.43;2.55;;;15.90;99.90;;;;;;5036253;28;20048;-71
2023/08/03 00:29:59;;;;;;;6.82;2.97;;;15.80;99.90;;;;;;5036762;28;20068;-71
2023/08/03 00:32:28;;;;;;;6.07;2.80;;;15.80;99.90;;;;;;5054888;28;20048;-71
2023/08/03 00:34:56;;;;;;;4.05;2.60;;;15.80;99.90;;;;;;5036273;28;20041;-70
2023/08/03 00:37:25;;;;;;;5.75;2.97;;;15.80;99.90;;;;;;5054986;28;20069;-71
2023/08/03 00:39:53;;;;;;;4.28;2.75;;;15.80;99.90;;;;;;5036901;28;20539;-70
2023/08/03 00:42:19;;;;;;;5.32;2.75;;;15.80;99.90;;;;;;5054277;28;20117;-71
2023/08/03 00:44:45;;;;;;;7.35;2.92;;;15.80;99.90;;;;;;5054738;28;20396;-70
2023/08/03 00:47:11;;;;;;;6.18;2.95;;;15.80;99.90;;;;;;5054643;28;20045;-70
2023/08/03 00:49:37;;;;;;;5.90;2.75;;;15.80;99.90;;;;;;5035837;28;20084;-70
2023/08/03 00:52:03;;;;;;;5.70;2.90;;;15.80;99.90;;;;;;5054305;28;20099;-70
2023/08/03 00:54:29;;;;;;;5.82;2.90;;;15.90;99.90;;;;;;5054370;28;20465;-70
2023/08/03 00:56:57;;;;;;;7.22;3.08;;;15.90;99.90;;;;;;5054181;28;20120;-70
2023/08/03 00:59:23;;;;;;;4.75;2.72;;;15.90;99.90;;;;;;5036761;28;20048;-71
2023/08/03 01:01:48;;;;;;;4.15;2.53;;;15.90;99.90;;;;;;5052570;28;20045;-70
2023/08/03 01:04:14;;;;;;;6.63;2.85;;;15.90;99.90;;;;;;5036417;28;20045;-71
2023/08/03 01:06:40;;;;;;;7.65;3.17;;;16.00;99.90;;;;;;5036476;28;20044;-71
2023/08/03 01:09:06;;;;;;;6.30;2.70;;;16.00;99.90;;;;;;5053717;28;20441;-71
2023/08/03 01:11:32;;;;;;;8.02;2.95;;;16.00;99.90;;;;;;5053095;28;20120;-71
2023/08/03 01:13:58;;;;;;;6.03;2.90;;;16.10;99.90;;;;;;5054172;28;20045;-72
2023/08/03 01:16:25;;;;;;;5.90;2.70;;;16.00;99.90;;;;;;5036176;28;20546;-71
2023/08/03 01:18:54;;;;;;;6.20;2.65;;;16.00;99.90;;;;;;5054004;28;20560;-71
2023/08/03 01:21:21;;;;;;;6.10;2.88;;;16.00;99.90;;;;;;5035803;28;20041;-71
2023/08/03 01:23:47;;;;;;;4.93;2.60;;;16.00;99.90;;;;;;5053262;28;20045;-71
2023/08/03 01:26:15;;;;;;;6.03;2.60;;;16.00;99.90;;;;;;5053856;28;20053;-71
2023/08/03 01:28:41;;;;;;;5.30;2.50;;;16.00;99.90;;;;;;5053508;28;20063;-71
2023/08/03 01:31:07;;;;;;;5.68;2.50;;;16.00;99.90;;;;;;5053609;28;20048;-71
2023/08/03 01:33:33;;;;;;;6.45;2.42;;;15.90;99.90;;;;;;5053307;28;20554;-71
2023/08/03 01:35:59;;;;;;;5.95;2.50;;;15.90;99.90;;;;;;5053128;28;20389;-71
2023/08/03 01:38:25;;;;;;;6.38;2.40;;;15.90;99.90;;;;;;5035348;28;20052;-71
2023/08/03 01:40:51;;;;;;;7.60;2.40;;;15.90;99.90;;;;;;5053439;28;20052;-71
2023/08/03 01:43:17;;;;;;;6.75;2.42;;;16.00;99.90;;;;;;5052860;28;20096;-71
2023/08/03 01:45:42;;;;;;;6.57;2.60;;;15.90;99.90;;;;;;5053046;28;20041;-71
2023/08/03 01:48:08;;;;;;;5.15;2.05;;;16.00;99.90;;;;;;5035865;28;20127;-71
2023/08/03 01:50:43;;;;;;;5.13;2.17;;;16.00;99.90;;;;;;5053047;28;20088;-71
2023/08/03 01:53:09;;;;;;;5.03;2.20;;;16.00;99.90;;;;;;5035288;28;20053;-71
2023/08/03 01:55:35;;;;;;;4.35;2.00;;;15.90;99.90;;;;;;5035145;28;20103;-71
2023/08/03 01:58:01;;;;;;;4.95;2.10;;;15.90;99.90;;;;;;5035386;28;20194;-71
2023/08/03 02:00:27;;;;;;;7.05;2.05;;;15.90;99.90;;;;;;5035575;28;20080;-71
2023/08/03 02:02:55;;;;;;;4.30;2.40;;;15.90;99.90;;;;;;5033555;28;20053;-71
2023/08/03 02:05:21;;;;;;;4.70;2.55;;;15.90;99.90;;;;;;5033907;28;20041;-71
2023/08/03 02:07:53;;;;;;;5.78;2.40;;;15.90;99.90;;;;;;5052675;28;20052;-71
2023/08/03 02:10:21;;;;;;;5.05;2.10;;;15.90;99.90;;;;;;5053079;28;20049;-71
2023/08/03 02:12:47;;;;;;;3.60;2.00;;;15.90;99.90;;;;;;5052456;28;20470;-71
2023/08/03 02:15:14;;;;;;;3.63;2.10;;;15.90;99.90;;;;;;5035269;28;20087;-71
2023/08/03 02:17:43;;;;;;;5.18;2.20;;;15.90;99.90;;;;;;5034935;28;20045;-71
2023/08/03 02:20:15;;;;;;;5.03;2.30;;;16.00;99.90;;;;;;5034231;28;20045;-71
2023/08/03 02:22:43;;;;;;;7.90;2.10;;;16.00;99.90;;;;;;5052997;28;20049;-71
2023/08/03 02:25:09;;;;;;;3.83;2.20;;;16.00;99.90;;;;;;5034339;28;20048;-71
2023/08/03 02:27:35;;;;;;;4.60;2.50;;;16.00;99.90;;;;;;5051910;28;20049;-71
2023/08/03 02:30:01;;;;;;;5.05;2.33;;;16.00;99.90;;;;;;5052745;28;20056;-72
2023/08/03 02:32:27;;;;;;;5.20;2.70;;;16.00;99.90;;;;;;5052154;28;20048;-71
2023/08/03 02:34:52;;;;;;;4.10;2.80;;;16.00;99.90;;;;;;5051561;28;20488;-71
2023/08/03 02:37:18;;;;;;;6.72;2.45;;;16.00;99.90;;;;;;5034929;28;20037;-71
2023/08/03 02:39:44;;;;;;;4.03;2.38;;;16.00;99.90;;;;;;5051940;28;20044;-71
2023/08/03 02:42:10;;;;;;;4.30;2.78;;;15.90;99.90;;;;;;5052203;28;20102;-71
2023/08/03 02:44:35;;;;;;;4.55;3.08;;;16.00;99.90;;;;;;5052378;28;20048;-71
2023/08/03 02:47:01;;;;;;;4.70;2.83;;;15.90;99.90;;;;;;5052501;28;20056;-71
2023/08/03 02:49:30;;;;;;;4.50;3.00;;;15.90;99.90;;;;;;5051398;28;20051;-71
2023/08/03 02:51:55;;;;;;;5.57;2.97;;;16.00;99.90;;;;;;5034497;28;20055;-71
2023/08/03 02:54:21;;;;;;;5.53;3.03;;;15.90;99.90;;;;;;5033714;28;20052;-71
2023/08/03 02:56:47;;;;;;;7.22;2.70;;;15.90;99.90;;;;;;5052304;28;20041;-71
2023/08/03 02:59:18;;;;;;;5.32;3.00;;;15.90;99.90;;;;;;5052285;28;20453;-71
2023/08/03 03:01:45;;;;;;;7.28;3.10;;;15.90;99.90;;;;;;5033950;28;20053;-71
2023/08/03 03:04:11;;;;;;;4.20;3.00;;;15.90;99.90;;;;;;5052641;28;20048;-71
2023/08/03 03:06:38;;;;;;;4.68;3.03;;;15.90;99.90;;;;;;5033786;28;20072;-72
2023/08/03 03:09:04;;;;;;;5.38;3.13;;;15.90;99.90;;;;;;5051737;28;20124;-71
2023/08/03 03:11:30;;;;;;;5.75;3.03;;;15.90;99.90;;;;;;5052260;28;20127;-72
2023/08/03 03:13:56;;;;;;;5.88;3.20;;;15.90;99.90;;;;;;5034385;28;20585;-72
2023/08/03 03:16:25;;;;;;;5.70;3.50;;;15.90;99.90;;;;;;5051982;28;20067;-71
2023/08/03 03:18:51;;;;;;;5.90;3.55;;;15.80;99.90;;;;;;5052641;28;20045;-72
2023/08/03 03:21:20;;;;;;;5.10;3.53;;;15.80;99.90;;;;;;5052338;28;20041;-72
2023/08/03 03:23:47;;;;;;;6.90;4.05;;;15.70;99.90;;;;;;5051606;28;20086;-71
2023/08/03 03:26:12;;;;;;;5.85;3.50;;;15.70;99.90;;;;;;5041562;28;20080;-71
2023/08/03 03:28:38;;;;;;;7.30;3.65;;;15.70;99.90;;;;;;5049602;28;20076;-71
2023/08/03 03:31:04;;;;;;;6.75;4.10;;;15.70;99.90;;;;;;5051451;28;20480;-71
2023/08/03 03:33:30;;;;;;;7.90;4.18;;;15.70;99.90;;;;;;5052485;28;20532;-71
2023/08/03 03:35:55;;;;;;;6.10;3.78;;;15.70;99.90;;;;;;5050072;28;20033;-71
2023/08/03 03:38:21;;;;;;;6.57;4.00;;;15.70;99.90;;;;;;5051951;28;20089;-71
2023/08/03 03:40:47;;;;;;;5.95;3.90;;;15.70;99.90;;;;;;5050094;28;20041;-71
2023/08/03 03:43:16;;;;;;;8.15;3.55;;;15.70;99.90;;;;;;5051587;28;20454;-70
2023/08/03 03:45:44;;;;;;;7.82;3.60;;;15.80;99.90;;;;;;5050074;28;20041;-71
2023/08/03 03:48:10;;;;;;;7.07;3.20;;;15.80;99.90;;;;;;5050478;28;20052;-71
2023/08/03 03:50:36;;;;;;;5.90;3.10;;;15.80;99.90;;;;;;5049626;28;20041;-71
2023/08/03 03:53:02;;;;;;;9.70;3.15;;;15.70;99.90;;;;;;5052260;28;20041;-71
2023/08/03 03:55:31;;;;;;;7.00;2.65;;;15.70;99.90;;;;;;5049703;28;20079;-71
2023/08/03 03:57:58;;;;;;;7.50;2.60;;;15.70;99.90;;;;;;5050812;28;20209;-71
2023/08/03 04:00:24;;;;;;;7.63;2.83;;;15.70;99.90;;;;;;5054438;28;20098;-71
2023/08/03 04:02:50;;;;;;;4.95;2.63;;;15.60;99.90;;;;;;5053544;28;20044;-71
2023/08/03 04:05:16;;;;;;;8.68;2.90;;;15.60;99.90;;;;;;5053592;28;20118;-71
2023/08/03 04:07:41;;;;;;;7.72;2.70;;;15.60;99.90;;;;;;5054264;28;20454;-71
2023/08/03 04:10:07;;;;;;;9.82;3.10;;;15.50;99.90;;;;;;5053549;28;20488;-71
2023/08/03 04:12:33;;;;;;;6.53;2.65;;;15.40;99.90;;;;;;5052327;28;20085;-72
2023/08/03 04:14:59;;;;;;;7.18;2.83;;;15.40;99.90;;;;;;5055295;28;20037;-71
2023/08/03 04:17:24;;;;;;;10.60;3.42;;;15.40;99.90;;;;;;5053819;28;20484;-71
2023/08/03 04:19:50;;;;;;;6.93;2.72;;;15.40;99.90;;;;;;5054472;28;20443;-71
2023/08/03 04:22:16;;;;;;;7.78;3.30;;;15.30;99.90;;;;;;5053862;28;20056;-71
2023/08/03 04:24:42;;;;;;;7.60;3.53;;;15.30;99.90;;;;;;5053754;28;20526;-71
2023/08/03 04:27:07;;;;;;;6.53;3.22;;;15.30;99.90;;;;;;5053579;28;20084;-71
2023/08/03 04:29:33;;;;;;;6.75;2.97;;;15.30;99.90;;;;;;5036877;28;20389;-71
2023/08/03 04:31:59;;;;;;;6.10;3.53;;;15.30;99.90;;;;;;5035823;28;20049;-71
2023/08/03 04:34:25;;;;;;;5.82;3.03;;;15.30;99.90;;;;;;5036810;28;20382;-71
2023/08/03 04:36:50;;;;;;;6.32;3.13;;;15.30;99.90;;;;;;5054863;28;20058;-71
2023/08/03 04:39:16;;;;;;;6.10;3.03;;;15.30;99.90;;;;;;5054825;28;20569;-71
2023/08/03 04:41:42;;;;;;;6.20;2.90;;;15.30;99.90;;;;;;5054105;28;20052;-71
2023/08/03 04:44:07;;;;;;;7.18;3.30;;;15.30;99.90;;;;;;5055041;28;20092;-71
2023/08/03 04:46:33;;;;;;;5.90;3.42;;;15.30;99.90;;;;;;5054141;28;20112;-71
2023/08/03 04:48:59;;;;;;;8.32;3.47;;;15.20;99.90;;;;;;5054079;28;20087;-71
2023/08/03 04:51:24;;;;;;;6.68;3.50;;;15.20;99.90;;;;;;5035818;28;20055;-71
2023/08/03 04:53:50;;;;;;;8.90;3.63;;;15.20;99.90;;;;;;5036885;28;20049;-71
2023/08/03 04:56:18;;;;;;;9.88;3.80;;;15.20;99.90;;;;;;5036564;28;20378;-71
2023/08/03 04:58:44;;;;;;;5.97;3.10;;;15.30;99.90;;;;;;5036612;28;20049;-70
2023/08/03 05:01:12;;;;;;;6.78;3.30;;;15.20;99.90;;;;;;5053817;28;20507;-71
2023/08/03 05:03:38;;;;;;;8.77;3.70;;;15.30;99.90;;;;;;5037178;28;20041;-71
2023/08/03 05:06:04;;;;;;;4.72;3.15;;;15.20;99.90;;;;;;5036431;28;20499;-71
2023/08/03 05:08:30;;;;;;;9.30;3.10;;;15.20;99.90;;;;;;5053928;28;20045;-71
2023/08/03 05:10:55;;;;;;;8.40;3.50;;;15.20;99.90;;;;;;5034924;28;20045;-71
2023/08/03 05:13:21;;;;;;;6.68;3.20;;;15.20;99.90;;;;;;5054234;28;20051;-71
2023/08/03 05:15:47;;;;;;;6.65;3.00;;;15.20;99.90;;;;;;5053471;28;20523;-71
2023/08/03 05:18:13;;;;;;;9.50;3.40;;;15.20;99.90;;;;;;5036605;28;20041;-71
2023/08/03 05:20:39;;;;;;;7.63;3.50;;;15.30;99.90;;;;;;5035897;28;20393;-71
2023/08/03 05:23:07;;;;;;;6.40;3.33;;;15.30;99.90;;;;;;5035550;28;20469;-71
2023/08/03 05:25:33;;;;;;;7.60;3.10;;;15.30;99.90;;;;;;5038873;28;20131;-71
2023/08/03 05:28:00;;;;;;;6.30;3.40;;;15.30;99.90;;;;;;5053994;28;20183;-71
2023/08/03 05:30:26;;;;;;;7.63;3.45;;;15.40;99.90;;;;;;5051931;28;20037;-71
2023/08/03 05:32:53;;;;;;;5.80;3.10;;;15.40;99.90;;;;;;5053488;28;20515;-71
2023/08/03 05:35:24;;;;;;;7.60;3.08;;;15.40;99.90;;;;;;5052422;28;20518;-71
2023/08/03 05:37:53;;;;;;;5.78;2.90;;;15.50;99.90;;;;;;5052708;28;20036;-72
2023/08/03 05:40:20;;;;;;;4.00;2.53;;;15.50;99.90;;;;;;5052737;28;20114;-71
2023/08/03 05:42:45;;;;;;;7.53;2.60;;;15.60;99.90;;;;;;5052752;28;20161;-72
2023/08/03 05:45:33;;;;;;;7.88;2.58;;;15.70;99.90;;;;;;5053803;28;20471;-71
2023/08/03 05:47:59;;;;;;;5.43;2.25;;;15.70;99.90;;;;;;5052986;28;20041;-72
2023/08/03 05:50:25;;;;;;;5.88;2.50;;;15.80;99.90;;;;;;5053660;28;20045;-71
2023/08/03 05:52:51;;;;;;;5.32;2.35;;;15.80;99.90;;;;;;5051497;28;20067;-71
2023/08/03 05:55:17;;;;;;;5.55;2.10;;;15.90;99.90;;;;;;5052036;28;20044;-71
2023/08/03 05:57:51;;;;;;;6.57;2.00;;;15.90;99.90;;;;;;5051517;28;20048;-71
2023/08/03 06:00:20;;;;;;;8.68;2.53;;;16.00;99.90;;;;;;5052471;28;20099;-71
2023/08/03 06:02:46;;;;;;;8.18;2.20;;;16.00;99.90;;;;;;5052403;28;20096;-71
2023/08/03 06:05:46;;;;;;;3.65;1.80;;;16.10;99.90;;;;;;5051355;28;20139;-72
2023/08/03 06:08:22;;;;;;;3.50;1.70;;;16.10;99.90;;;;;;5051414;28;20526;-71
2023/08/03 06:10:53;;;;;;;4.90;1.58;;;16.20;99.90;;;;;;5051483;28;20496;-71
2023/08/03 06:13:27;;;;;;;4.30;1.85;;;16.20;99.90;;;;;;5051699;28;20429;-71
2023/08/03 06:15:53;;;;;;;4.90;1.85;;;16.20;99.90;;;;;;5052441;28;20487;-71
2023/08/03 06:18:20;;;;;;;7.25;1.98;;;16.40;99.90;;;;;;5052141;28;20118;-71
2023/08/03 06:20:53;;;;;;;5.93;1.65;;;16.40;99.90;;;;;;5052965;28;20369;-71
2023/08/03 06:23:25;;;;;;;5.32;1.67;;;16.40;99.90;;;;;;5052296;28;20068;-71
2023/08/03 06:25:53;;;;;;;6.85;1.70;;;16.50;99.90;;;;;;5052093;28;20595;-71
2023/08/03 06:28:21;;;;;;;4.22;1.70;;;16.50;99.90;;;;;;5034841;28;20056;-71
2023/08/03 06:30:51;;;;;;;5.25;1.77;;;16.60;99.90;;;;;;5034439;28;20138;-71
2023/08/03 06:33:18;;;;;;;4.68;1.52;;;16.70;99.90;;;;;;5052375;28;20045;-71
2023/08/03 06:35:50;;;;;;;7.25;1.65;;;16.80;99.90;;;;;;5052450;28;20037;-71
2023/08/03 06:38:21;;;;;;;5.22;1.80;;;16.80;99.90;;;;;;5034436;28;20409;-71
2023/08/03 06:40:47;;;;;;;4.50;1.80;;;16.90;99.90;;;;;;5033821;28;20068;-71
2023/08/03 06:43:17;;;;;;;4.20;1.73;;;16.90;99.90;;;;;;5034710;28;20098;-71
2023/08/03 06:45:43;;;;;;;4.30;1.65;;;17.10;99.90;;;;;;5052099;28;20114;-71
2023/08/03 06:48:10;;;;;;;7.28;2.25;;;17.30;99.90;;;;;;5034461;28;20515;-71
2023/08/03 06:50:36;;;;;;;5.25;1.80;;;17.50;99.90;;;;;;5034379;28;20051;-71
2023/08/03 06:53:03;;;;;;;7.85;1.80;;;17.70;99.90;;;;;;5033880;28;20049;-71
2023/08/03 06:55:30;;;;;;;6.50;1.70;;;17.90;99.90;;;;;;5034433;28;20045;-71
2023/08/03 06:57:57;;;;;;;4.97;1.77;;;17.90;99.90;;;;;;5034226;28;20044;-71
2023/08/03 07:00:26;;;;;;;7.05;1.88;;;17.90;99.90;;;;;;5034722;28;20045;-71
2023/08/03 07:02:52;;;;;;;7.07;1.67;;;17.90;99.90;;;;;;5033622;28;20052;-71
2023/08/03 07:05:20;;;;;;;6.35;2.13;;;18.10;99.90;;;;;;5034387;28;20493;-71
2023/08/03 07:07:46;;;;;;;5.57;1.70;;;18.10;99.90;;;;;;5033418;28;20351;-71
2023/08/03 07:10:12;;;;;;;7.10;1.70;;;18.10;99.90;;;;;;5052344;28;20040;-71
2023/08/03 07:12:38;;;;;;;5.60;2.00;;;18.10;99.90;;;;;;5051865;28;20048;-71
2023/08/03 07:15:07;;;;;;;8.65;1.60;;;18.10;99.90;;;;;;5033805;28;20045;-71
2023/08/03 07:17:33;;;;;;;6.80;1.75;;;18.10;99.90;;;;;;5034188;28;20198;-71
2023/08/03 07:19:59;;;;;;;9.63;1.98;;;18.20;99.90;;;;;;5034346;28;20504;-71
2023/08/03 07:22:24;;;;;;;7.40;1.90;;;18.20;99.90;;;;;;5051567;28;20476;-71
2023/08/03 07:24:51;;;;;;;7.03;1.77;;;18.30;99.90;;;;;;5033395;28;20133;-71
2023/08/03 07:27:17;;;;;;;12.30;2.20;;;18.40;99.90;;;;;;5034693;28;20045;-71
2023/08/03 07:29:43;;;;;;;7.63;2.05;;;18.50;99.90;;;;;;5050824;28;20512;-71
2023/08/03 07:32:18;;;;;;;10.30;2.00;;;18.60;99.90;;;;;;5052268;28;20045;-71
2023/08/03 07:34:46;;;;;;;8.73;2.33;;;18.80;99.90;;;;;;5053388;28;20037;-71
2023/08/03 07:37:12;;;;;;;8.77;2.13;;;19.10;99.90;;;;;;5055710;28;20052;-72
2023/08/03 07:39:38;;;;;;;8.18;2.03;;;19.70;99.90;;;;;;5036753;28;20408;-72
2023/08/03 07:42:06;;;;;;;7.85;1.98;;;20.40;99.90;;;;;;5037808;28;20051;-72
2023/08/03 07:44:35;;;;;;;7.07;2.08;;;21.50;99.90;;;;;;5037170;28;20076;-71
2023/08/03 07:47:01;;;;;;;9.18;2.05;;;22.00;99.90;;;;;;5055769;28;20063;-72
2023/08/03 07:49:29;;;;;;;8.77;1.98;;;22.30;99.90;;;;;;5037154;28;20045;-72
2023/08/03 07:51:55;;;;;;;8.45;2.25;;;22.50;99.90;;;;;;5036693;28;20350;-72
2023/08/03 07:54:24;;;;;;;7.30;1.90;;;22.30;99.90;;;;;;5036807;28;20051;-72
2023/08/03 07:56:49;;;;;;;6.97;1.60;;;22.60;99.90;;;;;;5054935;28;20427;-72
2023/08/03 07:59:15;;;;;;;5.22;1.70;;;23.00;99.90;;;;;;5055829;28;20040;-72
2023/08/03 08:01:43;;;;;;;5.57;1.80;;;23.60;99.90;;;;;;5037280;28;20094;-72
2023/08/03 08:04:09;;;;;;;6.30;1.88;;;24.00;99.90;;;;;;5054658;28;20083;-72
2023/08/03 08:06:35;;;;;;;7.30;2.05;;;24.20;99.90;;;;;;5037375;28;20045;-73
2023/08/03 08:09:01;;;;;;;7.55;1.88;;;24.80;99.90;;;;;;5055508;28;20037;-72
2023/08/03 08:11:28;;;;;;;7.93;1.90;;;25.00;99.90;;;;;;5036937;28;20045;-72
2023/08/03 08:13:59;;;;;;;6.43;1.95;;;25.10;99.90;;;;;;5055078;28;20394;-72
2023/08/03 08:16:25;;;;;;;5.00;1.58;;;24.80;99.90;;;;;;5054888;28;20041;-72
2023/08/03 08:18:51;;;;;;;7.75;1.80;;;24.10;99.90;;;;;;5054372;28;20071;-72
2023/08/03 08:21:20;;;;;;;5.97;1.70;;;23.90;99.90;;;;;;5037785;28;20069;-72
2023/08/03 08:23:45;;;;;;;8.13;2.00;;;24.30;99.90;;;;;;5054872;28;20040;-72
2023/08/03 08:26:13;;;;;;;6.78;2.20;;;24.90;99.90;;;;;;5026749;28;20467;-72
2023/08/03 08:28:41;;;;;;;7.38;1.83;;;25.00;99.90;;;;;;5016446;28;20549;-72
2023/08/03 08:31:07;;;;;;;6.38;1.80;;;24.90;99.90;;;;;;5034712;28;20456;-72
2023/08/03 08:33:32;;;;;;;6.80;1.88;;;24.60;99.90;;;;;;5016595;28;20049;-73
2023/08/03 08:35:58;;;;;;;8.10;1.90;;;24.50;99.90;;;;;;5016732;28;20082;-72
2023/08/03 08:38:24;;;;;;;7.35;1.80;;;24.70;99.90;;;;;;5035358;28;20041;-72
2023/08/03 08:40:50;;;;;;;4.60;1.40;;;25.40;99.90;;;;;;5016453;28;20037;-72
2023/08/03 08:43:18;;;;;;;8.30;1.70;;;25.50;99.90;;;;;;5034876;28;20560;-72
2023/08/03 08:45:44;;;;;;;6.40;1.80;;;25.20;99.90;;;;;;5015150;28;20401;-72
2023/08/03 08:48:09;;;;;;;4.95;1.65;;;24.90;99.90;;;;;;5034487;28;20037;-72
2023/08/03 08:50:38;;;;;;;6.20;1.30;;;24.90;99.90;;;;;;5016475;28;20038;-71
2023/08/03 08:53:07;;;;;;;5.50;1.33;;;24.70;99.90;;;;;;5016167;28;20390;-71
2023/08/03 08:55:32;;;;;;;6.70;1.40;;;24.30;99.90;;;;;;5016295;28;20057;-71
2023/08/03 08:58:02;;;;;;;5.35;1.30;;;24.00;99.90;;;;;;5034358;28;20483;-71
2023/08/03 09:00:28;;;;;;;4.70;1.08;;;24.50;99.90;;;;;;5016555;28;20045;-71
2023/08/03 09:02:56;;;;;;;4.72;1.20;;;24.80;99.90;;;;;;5016629;28;20049;-71
2023/08/03 09:05:24;;;;;;;5.60;1.10;;;24.70;99.90;;;;;;5016547;28;20053;-71
2023/08/03 09:08:07;;;;;;;3.53;1.00;;;24.80;99.90;;;;;;5016210;28;20081;-71
2023/08/03 09:10:48;;;;;;;5.57;1.02;;;24.40;99.90;;;;;;5025879;28;20052;-71
2023/08/03 09:13:35;;;;;;;3.83;1.20;;;23.90;99.90;;;;;;5034233;28;20052;-71
2023/08/03 09:16:02;;;;;;;5.03;1.20;;;23.80;99.90;;;;;;5015591;28;20046;-71
2023/08/03 09:18:29;;;;;;;4.18;1.00;;;23.50;99.90;;;;;;5016416;28;20053;-71
2023/08/03 09:21:09;;;;;;;3.83;0.82;;;23.30;99.90;;;;;;5033907;28;20460;-71
2023/08/03 09:23:36;;;;;;;3.92;1.00;;;23.20;99.90;;;;;;5033638;28;20128;-71
2023/08/03 09:26:03;;;;;;;5.07;1.65;;;23.20;99.90;;;;;;5015767;28;20535;-71
2023/08/03 09:28:40;;;;;;;3.05;1.35;;;23.10;99.90;;;;;;5016102;28;20099;-71
2023/08/03 09:31:12;;;;;;;4.57;0.90;;;23.10;99.90;;;;;;5016405;28;20049;-71
2023/08/03 09:33:37;;;;;;;4.30;1.10;;;22.80;99.90;;;;;;5015638;28;20052;-71
2023/08/03 09:36:10;;;;;;;4.78;1.02;;;22.60;99.90;;;;;;5015672;28;20042;-71
2023/08/03 09:38:37;;;;;;;3.75;1.00;;;22.50;99.90;;;;;;5033574;28;20095;-71
2023/08/03 09:41:03;;;;;;;3.28;0.85;;;22.50;99.90;;;;;;5033407;28;20493;-71
2023/08/03 09:43:29;;;;;;;5.97;1.05;;;22.30;99.90;;;;;;5032900;28;20075;-71
2023/08/03 09:45:56;;;;;;;3.47;0.85;;;22.40;99.90;;;;;;5015925;28;20053;-71
2023/08/03 09:48:23;;;;;;;4.18;1.00;;;22.30;99.90;;;;;;5033856;28;20124;-71
2023/08/03 09:50:58;;;;;;;2.92;0.98;;;22.20;99.90;;;;;;5014947;28;20049;-71
2023/08/03 09:53:30;;;;;;;3.22;0.90;;;22.00;99.90;;;;;;5033014;28;20042;-71
2023/08/03 09:56:01;;;;;;;4.72;1.00;;;21.90;99.90;;;;;;4996104;28;20042;-71
2023/08/03 09:58:51;;;;;;;3.47;1.00;;;21.80;99.90;;;;;;4995424;28;20511;-71
2023/08/03 10:01:23;;;;;;;4.10;1.10;;;21.80;99.90;;;;;;5002237;28;20476;-71
2023/08/03 10:03:55;;;;;;;4.28;1.13;;;21.70;99.90;;;;;;5017465;28;20046;-71
2023/08/03 10:06:26;;;;;;;4.50;1.10;;;21.60;99.90;;;;;;5014904;28;20409;-72
2023/08/03 10:08:55;;;;;;;4.40;1.15;;;21.60;99.90;;;;;;5032206;28;20064;-71
2023/08/03 10:11:30;;;;;;;4.85;1.10;;;21.60;99.90;;;;;;5032744;28;20436;-71
2023/08/03 10:14:01;;;;;;;4.05;1.35;;;21.70;99.90;;;;;;5032810;28;20056;-71
2023/08/03 10:16:27;;;;;;;4.25;1.17;;;21.70;99.90;;;;;;5032300;28;20053;-71
2023/08/03 10:18:54;;;;;;;5.40;1.20;;;21.90;99.90;;;;;;5031857;28;20046;-71
2023/08/03 10:21:20;;;;;;;5.00;1.20;;;22.00;99.90;;;;;;5015402;28;20044;-71
2023/08/03 10:24:09;;;;;;;5.75;1.40;;;22.20;99.90;;;;;;5014825;28;20409;-70
2023/08/03 10:26:35;;;;;;;7.22;1.13;;;22.50;99.90;;;;;;5014260;28;20057;-71
2023/08/03 10:29:04;;;;;;;5.93;1.00;;;22.90;99.90;;;;;;5015378;28;20409;-72
2023/08/03 10:31:30;;;;;;;5.05;1.25;;;23.20;99.90;;;;;;5031876;28;20049;-72
2023/08/03 10:33:56;;;;;;;6.45;1.30;;;23.20;99.90;;;;;;5032820;28;20489;-71
2023/08/03 10:36:45;;;;;;;6.78;1.40;;;23.30;99.90;;;;;;5032444;28;20048;-71
2023/08/03 10:39:38;;;;;;;3.75;1.20;;;23.30;99.90;;;;;;5032500;28;20055;-72
2023/08/03 10:42:25;;;;;;;5.93;1.38;;;23.60;99.90;;;;;;5013984;28;20512;-71
2023/08/03 10:44:51;;;;;;;5.70;1.50;;;24.20;99.90;;;;;;5008311;28;20501;-71
2023/08/03 10:47:30;;;;;;;6.00;1.77;;;24.00;99.90;;;;;;5032379;28;20052;-71
2023/08/03 10:49:58;;;;;;;4.72;1.70;;;23.80;99.90;;;;;;5031988;28;20038;-71
2023/08/03 10:52:28;;;;;;;7.05;2.00;;;23.20;99.90;;;;;;5032630;28;20050;-71
2023/08/03 10:54:55;;;;;;;6.90;1.80;;;22.60;99.90;;;;;;5013856;28;20124;-70
2023/08/03 10:57:30;;;;;;;8.88;2.13;;;22.20;99.90;;;;;;5032489;28;20080;-71
2023/08/03 11:00:01;;;;;;;7.88;2.10;;;21.80;99.90;;;;;;5031315;28;20430;-71
2023/08/03 11:02:33;;;;;;;10.00;2.10;;;21.70;99.90;;;;;;5014872;28;20056;-71
2023/08/03 11:05:06;;;;;;;11.27;1.80;;;21.40;99.90;;;;;;5032563;28;20125;-72
2023/08/03 11:07:40;;;;;;;9.40;2.00;;;21.60;99.90;;;;;;5014254;28;20132;-71
2023/08/03 11:10:11;;;;;;;8.70;2.15;;;21.80;99.90;;;;;;5013945;28;20054;-72
2023/08/03 11:12:38;;;;;;;10.80;2.00;;;22.20;99.90;;;;;;5032508;28;20041;-72
2023/08/03 11:15:08;;;;;;;6.97;1.45;;;22.30;99.90;;;;;;5015395;28;20057;-71
2023/08/03 11:17:37;;;;;;;5.22;1.40;;;22.20;99.90;;;;;;5033428;28;20049;-71
2023/08/03 11:20:04;;;;;;;5.07;1.20;;;21.80;99.90;;;;;;5032390;28;20117;-72
2023/08/03 11:22:33;;;;;;;5.60;1.40;;;21.30;99.90;;;;;;5014443;28;20053;-71
2023/08/03 11:25:03;;;;;;;6.05;2.00;;;20.80;99.90;;;;;;5014645;28;20129;-71
2023/08/03 11:27:30;;;;;;;5.53;1.48;;;20.50;99.90;;;;;;5014882;28;20060;-71
2023/08/03 11:29:56;;;;;;;6.10;1.70;;;20.40;99.90;;;;;;5013784;28;20111;-71
2023/08/03 11:32:25;;;;;;;6.03;1.60;;;20.40;99.90;;;;;;5031730;28;20087;-71
2023/08/03 11:35:30;;;;;;;7.93;1.75;;;20.30;99.90;;;;;;5030895;28;20087;-71
2023/08/03 11:37:56;;;;;;;4.43;1.58;;;20.40;99.90;;;;;;5017902;28;20046;-72
2023/08/03 11:40:25;;;;;;;4.47;1.50;;;20.30;99.90;;;;;;5031751;28;20060;-71
2023/08/03 11:42:51;;;;;;;3.55;1.30;;;20.20;99.90;;;;;;5013303;28;20551;-71
2023/08/03 11:45:17;;;;;;;6.57;1.52;;;19.90;99.90;;;;;;5013635;28;20061;-71
2023/08/03 11:47:48;;;;;;;8.73;2.25;;;19.70;99.90;;;;;;5031744;28;20038;-71
2023/08/03 11:50:20;;;;;;;6.25;2.17;;;19.40;99.90;;;;;;5014068;28;20053;-71
2023/08/03 11:52:46;;;;;;;8.98;2.17;;;19.10;99.90;;;;;;5013401;28;20060;-71
2023/08/03 11:55:38;;;;;;;11.20;3.00;;;19.10;99.90;;;;;;5013669;28;20120;-71
2023/08/03 11:58:07;;;;;;;9.85;2.55;;;19.10;99.90;;;;;;5031568;28;20057;-71
2023/08/03 12:00:33;;;;;;;9.88;2.47;;;19.10;99.90;;;;;;5031611;28;20038;-71
2023/08/03 12:02:59;;;;;;;13.45;3.17;;;19.00;99.90;;;;;;5013503;28;20037;-71
2023/08/03 12:05:25;;;;;;;10.23;2.78;;;18.90;99.90;;;;;;5014120;28;20045;-71
2023/08/03 12:07:56;;;;;;;11.25;3.25;;;18.80;99.90;;;;;;5013745;28;20049;-71
2023/08/03 12:10:22;;;;;;;11.38;3.15;;;18.80;99.90;;;;;;5031108;28;20045;-71
2023/08/03 12:12:48;;;;;;;10.15;2.70;;;19.00;99.90;;;;;;5031024;28;20038;-71
2023/08/03 12:15:13;;;;;;;9.93;3.00;;;19.20;99.90;;;;;;5013294;28;20375;-71
2023/08/03 12:17:39;;;;;;;12.88;3.72;;;19.40;99.90;;;;;;5012763;28;20402;-71
2023/08/03 12:20:06;;;;;;;13.23;3.58;;;19.50;99.90;;;;;;5032440;28;20124;-71
2023/08/03 12:22:36;;;;;;;10.98;3.10;;;19.70;99.90;;;;;;5034731;28;20041;-72
2023/08/03 12:25:02;;;;;;;14.00;3.08;;;19.90;99.90;;;;;;5034903;28;20041;-71
2023/08/03 12:27:31;;;;;;;10.93;3.60;;;20.10;99.90;;;;;;5034536;28;20045;-72
2023/08/03 12:29:56;;;;;;;15.45;3.65;;;20.10;99.90;;;;;;5017726;28;20052;-71
2023/08/03 12:32:22;;;;;;;14.73;3.63;;;20.20;99.90;;;;;;5016616;28;20041;-72
2023/08/03 12:34:48;;;;;;;12.93;3.42;;;20.40;99.90;;;;;;5016650;28;20041;-72
2023/08/03 12:37:13;;;;;;;13.40;3.08;;;20.20;99.90;;;;;;5017640;28;20049;-71
2023/08/03 12:39:39;;;;;;;15.27;3.17;;;20.40;99.90;;;;;;5034548;28;20044;-71
2023/08/03 12:42:06;;;;;;;14.48;3.70;;;20.20;99.90;;;;;;5016954;28;20053;-71
2023/08/03 12:44:32;;;;;;;12.73;3.08;;;20.00;99.90;;;;;;5034370;28;20217;-71
2023/08/03 12:47:04;;;;;;;9.95;2.80;;;19.90;99.90;;;;;;5034454;28;20100;-71
2023/08/03 12:49:29;;;;;;;7.63;2.85;;;19.90;99.90;;;;;;5034463;28;20478;-71